CFC6 weather

Rockyford Airport
Rockyford, Alberta, Canada

Public forecast

Using degrees Celsius for public forecast. Weather courtesy of forecast.io.

METAR (pilot weather report)

Closest report is Calgary International Airport, 35.2 nm (65.2 km) WSW. Retrieved 2019/06/15 21:00 UTC (7 minutes ago):

CYYC 152100Z 36008KT 330V050 20SM SCT050 SCT060TCU SCT075 SCT100 19/06 A3003 RMK CU3TCU1AC1AC1 AC TR AC TR TCU TR DIST SW SLP172 DENSITY ALT 4800FT

TAF (pilot weather forecast)

Closest forecast is Calgary International Airport, 35.2 nm (65.2 km) WSW. Retrieved 2019/06/15 21:39 UTC (0 seconds ago):

TAF CYYC 152038Z 1521/1618 36010KT P6SM SCT070 TEMPO 1521/1603 P6SM -SHRA BKN070 PROB30 1522/1603 VRB15G25KT 5SM TSRA BKN050CB FM160300 01008KT P6SM SCT080 BECMG 1603/1605 28005KT RMK NXT FCST BY 160000Z